sensor_id;sensor_type;location;lat;lon;timestamp;temperature;humidity
7576;DHT22;3829;50.798;4.358;2023-04-03T00:01:29;4.30;99.90
7576;DHT22;3829;50.798;4.358;2023-04-03T00:03:55;4.30;99.90
7576;DHT22;3829;50.798;4.358;2023-04-03T00:06:22;4.30;99.90
7576;DHT22;3829;50.798;4.358;2023-04-03T00:08:47;4.30;99.90
7576;DHT22;3829;50.798;4.358;2023-04-03T00:11:13;4.10;99.90
7576;DHT22;3829;50.798;4.358;2023-04-03T00:13:39;4.20;99.90
7576;DHT22;3829;50.798;4.358;2023-04-03T00:16:07;4.20;99.90
7576;DHT22;3829;50.798;4.358;2023-04-03T00:18:32;4.20;99.90
7576;DHT22;3829;50.798;4.358;2023-04-03T00:20:58;4.30;99.90
7576;DHT22;3829;50.798;4.358;2023-04-03T00:23:24;4.20;99.90
7576;DHT22;3829;50.798;4.358;2023-04-03T00:25:50;4.20;99.90
7576;DHT22;3829;50.798;4.358;2023-04-03T00:28:15;4.20;99.90
7576;DHT22;3829;50.798;4.358;2023-04-03T00:30:41;4.10;99.90
7576;DHT22;3829;50.798;4.358;2023-04-03T00:33:08;4.10;99.90
7576;DHT22;3829;50.798;4.358;2023-04-03T00:35:34;4.10;99.90
7576;DHT22;3829;50.798;4.358;2023-04-03T00:38:00;4.10;99.90
7576;DHT22;3829;50.798;4.358;2023-04-03T00:40:27;4.00;99.90
7576;DHT22;3829;50.798;4.358;2023-04-03T00:42:58;4.00;99.90
7576;DHT22;3829;50.798;4.358;2023-04-03T00:45:34;3.90;99.90
7576;DHT22;3829;50.798;4.358;2023-04-03T00:48:01;3.90;99.90
7576;DHT22;3829;50.798;4.358;2023-04-03T00:50:28;3.80;99.90
7576;DHT22;3829;50.798;4.358;2023-04-03T00:52:55;3.90;99.90
7576;DHT22;3829;50.798;4.358;2023-04-03T00:55:21;3.80;99.90
7576;DHT22;3829;50.798;4.358;2023-04-03T00:57:48;3.80;99.90
7576;DHT22;3829;50.798;4.358;2023-04-03T01:00:17;3.80;99.90
7576;DHT22;3829;50.798;4.358;2023-04-03T01:02:44;3.80;99.90
7576;DHT22;3829;50.798;4.358;2023-04-03T01:05:11;3.70;99.90
7576;DHT22;3829;50.798;4.358;2023-04-03T01:07:37;3.60;99.90
7576;DHT22;3829;50.798;4.358;2023-04-03T01:10:07;3.70;99.90
7576;DHT22;3829;50.798;4.358;2023-04-03T01:12:41;3.60;99.90
7576;DHT22;3829;50.798;4.358;2023-04-03T01:15:15;3.60;99.90
7576;DHT22;3829;50.798;4.358;2023-04-03T01:20:41;3.50;99.90
7576;DHT22;3829;50.798;4.358;2023-04-03T01:23:22;3.50;99.90
7576;DHT22;3829;50.798;4.358;2023-04-03T01:25:54;3.60;99.90
7576;DHT22;3829;50.798;4.358;2023-04-03T01:28:32;3.60;99.90
7576;DHT22;3829;50.798;4.358;2023-04-03T01:33:28;3.40;99.90
7576;DHT22;3829;50.798;4.358;2023-04-03T01:35:54;3.50;99.90
7576;DHT22;3829;50.798;4.358;2023-04-03T01:38:19;3.50;99.90
7576;DHT22;3829;50.798;4.358;2023-04-03T01:40:46;3.50;99.90
7576;DHT22;3829;50.798;4.358;2023-04-03T01:43:11;3.40;99.90
7576;DHT22;3829;50.798;4.358;2023-04-03T01:45:37;3.50;99.90
7576;DHT22;3829;50.798;4.358;2023-04-03T01:48:03;3.30;99.90
7576;DHT22;3829;50.798;4.358;2023-04-03T01:50:29;3.40;99.90
7576;DHT22;3829;50.798;4.358;2023-04-03T01:52:54;3.40;99.90
7576;DHT22;3829;50.798;4.358;2023-04-03T01:55:20;3.30;99.90
7576;DHT22;3829;50.798;4.358;2023-04-03T01:57:45;3.30;99.90
7576;DHT22;3829;50.798;4.358;2023-04-03T02:00:11;3.30;99.90
7576;DHT22;3829;50.798;4.358;2023-04-03T02:02:38;3.30;99.90
7576;DHT22;3829;50.798;4.358;2023-04-03T02:05:03;3.30;99.90
7576;DHT22;3829;50.798;4.358;2023-04-03T02:07:29;3.20;99.90
7576;DHT22;3829;50.798;4.358;2023-04-03T02:09:55;3.10;99.90
7576;DHT22;3829;50.798;4.358;2023-04-03T02:12:20;3.20;99.90
7576;DHT22;3829;50.798;4.358;2023-04-03T02:14:46;3.20;99.90
7576;DHT22;3829;50.798;4.358;2023-04-03T02:17:12;3.10;99.90
7576;DHT22;3829;50.798;4.358;2023-04-03T02:19:37;3.10;99.90
7576;DHT22;3829;50.798;4.358;2023-04-03T02:22:04;3.10;99.90
7576;DHT22;3829;50.798;4.358;2023-04-03T02:24:30;3.10;99.90
7576;DHT22;3829;50.798;4.358;2023-04-03T02:26:56;3.10;99.90
7576;DHT22;3829;50.798;4.358;2023-04-03T02:29:21;3.10;99.90
7576;DHT22;3829;50.798;4.358;2023-04-03T02:31:47;3.10;99.90
7576;DHT22;3829;50.798;4.358;2023-04-03T02:34:13;2.90;99.90
7576;DHT22;3829;50.798;4.358;2023-04-03T02:36:38;2.90;99.90
7576;DHT22;3829;50.798;4.358;2023-04-03T02:39:04;2.90;99.90
7576;DHT22;3829;50.798;4.358;2023-04-03T02:41:30;3.00;99.90
7576;DHT22;3829;50.798;4.358;2023-04-03T02:44:05;2.90;99.90
7576;DHT22;3829;50.798;4.358;2023-04-03T02:46:31;2.90;99.90
7576;DHT22;3829;50.798;4.358;2023-04-03T02:48:57;2.80;99.90
7576;DHT22;3829;50.798;4.358;2023-04-03T02:51:23;2.80;99.90
7576;DHT22;3829;50.798;4.358;2023-04-03T02:53:49;2.70;99.90
7576;DHT22;3829;50.798;4.358;2023-04-03T02:56:15;2.70;99.90
7576;DHT22;3829;50.798;4.358;2023-04-03T02:58:42;2.70;99.90
7576;DHT22;3829;50.798;4.358;2023-04-03T03:01:08;2.70;99.90
7576;DHT22;3829;50.798;4.358;2023-04-03T03:03:34;2.60;99.90
7576;DHT22;3829;50.798;4.358;2023-04-03T03:06:04;2.60;99.90
7576;DHT22;3829;50.798;4.358;2023-04-03T03:08:30;2.60;99.90
7576;DHT22;3829;50.798;4.358;2023-04-03T03:10:56;2.60;99.90
7576;DHT22;3829;50.798;4.358;2023-04-03T03:13:22;2.50;99.90
7576;DHT22;3829;50.798;4.358;2023-04-03T03:15:47;2.40;99.90
7576;DHT22;3829;50.798;4.358;2023-04-03T03:18:13;2.50;99.90
7576;DHT22;3829;50.798;4.358;2023-04-03T03:20:38;2.50;99.90
7576;DHT22;3829;50.798;4.358;2023-04-03T03:23:04;2.40;99.90
7576;DHT22;3829;50.798;4.358;2023-04-03T03:25:30;2.50;99.90
7576;DHT22;3829;50.798;4.358;2023-04-03T03:27:55;2.50;99.90
7576;DHT22;3829;50.798;4.358;2023-04-03T03:30:21;2.50;99.90
7576;DHT22;3829;50.798;4.358;2023-04-03T03:32:47;2.40;99.90
7576;DHT22;3829;50.798;4.358;2023-04-03T03:35:12;2.30;99.90
7576;DHT22;3829;50.798;4.358;2023-04-03T03:37:38;2.30;99.90
7576;DHT22;3829;50.798;4.358;2023-04-03T03:40:04;2.40;99.90
7576;DHT22;3829;50.798;4.358;2023-04-03T03:42:30;2.30;99.90
7576;DHT22;3829;50.798;4.358;2023-04-03T03:44:56;2.30;99.90
7576;DHT22;3829;50.798;4.358;2023-04-03T03:47:21;2.40;99.90
7576;DHT22;3829;50.798;4.358;2023-04-03T03:49:47;2.30;99.90
7576;DHT22;3829;50.798;4.358;2023-04-03T03:52:12;2.30;99.90
7576;DHT22;3829;50.798;4.358;2023-04-03T03:54:38;2.20;99.90
7576;DHT22;3829;50.798;4.358;2023-04-03T03:57:04;2.30;99.90
7576;DHT22;3829;50.798;4.358;2023-04-03T03:59:29;2.20;99.90
7576;DHT22;3829;50.798;4.358;2023-04-03T04:01:55;2.40;99.90
7576;DHT22;3829;50.798;4.358;2023-04-03T04:04:21;2.40;99.90
7576;DHT22;3829;50.798;4.358;2023-04-03T04:06:47;2.30;99.90
7576;DHT22;3829;50.798;4.358;2023-04-03T04:09:12;2.30;99.90
7576;DHT22;3829;50.798;4.358;2023-04-03T04:11:38;2.20;99.90
7576;DHT22;3829;50.798;4.358;2023-04-03T04:14:06;2.20;99.90
7576;DHT22;3829;50.798;4.358;2023-04-03T04:16:32;2.30;99.90
7576;DHT22;3829;50.798;4.358;2023-04-03T04:18:57;2.30;99.90
7576;DHT22;3829;50.798;4.358;2023-04-03T04:21:23;2.30;99.90
7576;DHT22;3829;50.798;4.358;2023-04-03T04:23:49;2.30;99.90
7576;DHT22;3829;50.798;4.358;2023-04-03T04:26:15;2.20;99.90
7576;DHT22;3829;50.798;4.358;2023-04-03T04:28:40;2.40;99.90
7576;DHT22;3829;50.798;4.358;2023-04-03T04:31:06;2.30;99.90
7576;DHT22;3829;50.798;4.358;2023-04-03T04:33:31;2.30;99.90
7576;DHT22;3829;50.798;4.358;2023-04-03T04:35:57;2.30;99.90
7576;DHT22;3829;50.798;4.358;2023-04-03T04:38:23;2.20;99.90
7576;DHT22;3829;50.798;4.358;2023-04-03T04:40:48;2.20;99.90
7576;DHT22;3829;50.798;4.358;2023-04-03T04:43:14;2.20;99.90
7576;DHT22;3829;50.798;4.358;2023-04-03T04:45:41;2.20;99.90
7576;DHT22;3829;50.798;4.358;2023-04-03T04:48:06;2.20;99.90
7576;DHT22;3829;50.798;4.358;2023-04-03T04:50:32;2.30;99.90
7576;DHT22;3829;50.798;4.358;2023-04-03T04:52:57;2.30;99.90
7576;DHT22;3829;50.798;4.358;2023-04-03T04:55:23;2.20;99.90
7576;DHT22;3829;50.798;4.358;2023-04-03T04:57:49;2.30;99.90
7576;DHT22;3829;50.798;4.358;2023-04-03T05:00:15;2.30;99.90
7576;DHT22;3829;50.798;4.358;2023-04-03T05:02:41;2.30;99.90
7576;DHT22;3829;50.798;4.358;2023-04-03T05:05:06;2.30;99.90
7576;DHT22;3829;50.798;4.358;2023-04-03T05:07:32;2.30;99.90
7576;DHT22;3829;50.798;4.358;2023-04-03T05:09:58;2.30;99.90
7576;DHT22;3829;50.798;4.358;2023-04-03T05:12:23;2.30;99.90
7576;DHT22;3829;50.798;4.358;2023-04-03T05:14:49;2.30;99.90
7576;DHT22;3829;50.798;4.358;2023-04-03T05:17:15;2.30;99.90
7576;DHT22;3829;50.798;4.358;2023-04-03T05:19:40;2.30;99.90
7576;DHT22;3829;50.798;4.358;2023-04-03T05:22:06;2.30;99.90
7576;DHT22;3829;50.798;4.358;2023-04-03T05:24:32;2.30;99.90
7576;DHT22;3829;50.798;4.358;2023-04-03T05:26:57;2.30;99.90
7576;DHT22;3829;50.798;4.358;2023-04-03T05:29:23;2.30;99.90
7576;DHT22;3829;50.798;4.358;2023-04-03T05:31:49;2.30;99.90
7576;DHT22;3829;50.798;4.358;2023-04-03T05:34:15;2.30;99.90
7576;DHT22;3829;50.798;4.358;2023-04-03T05:36:41;2.20;99.90
7576;DHT22;3829;50.798;4.358;2023-04-03T05:39:07;2.30;99.90
7576;DHT22;3829;50.798;4.358;2023-04-03T05:41:33;2.30;99.90
7576;DHT22;3829;50.798;4.358;2023-04-03T05:43:59;2.20;99.90
7576;DHT22;3829;50.798;4.358;2023-04-03T05:46:25;2.30;99.90
7576;DHT22;3829;50.798;4.358;2023-04-03T05:48:51;2.30;99.90
7576;DHT22;3829;50.798;4.358;2023-04-03T05:51:23;2.40;99.90
7576;DHT22;3829;50.798;4.358;2023-04-03T05:53:55;2.40;99.90
7576;DHT22;3829;50.798;4.358;2023-04-03T05:56:22;2.50;99.90
7576;DHT22;3829;50.798;4.358;2023-04-03T05:58:47;2.50;99.90
7576;DHT22;3829;50.798;4.358;2023-04-03T06:01:13;2.60;99.90
7576;DHT22;3829;50.798;4.358;2023-04-03T06:03:39;2.60;99.90
7576;DHT22;3829;50.798;4.358;2023-04-03T06:06:06;2.60;99.90
7576;DHT22;3829;50.798;4.358;2023-04-03T06:08:33;2.80;99.90
7576;DHT22;3829;50.798;4.358;2023-04-03T06:10:59;2.80;99.90
7576;DHT22;3829;50.798;4.358;2023-04-03T06:13:25;2.90;99.90
7576;DHT22;3829;50.798;4.358;2023-04-03T06:15:50;2.80;99.90
7576;DHT22;3829;50.798;4.358;2023-04-03T06:18:16;2.90;99.90
7576;DHT22;3829;50.798;4.358;2023-04-03T06:20:41;3.10;99.90
7576;DHT22;3829;50.798;4.358;2023-04-03T06:23:07;3.10;99.90
7576;DHT22;3829;50.798;4.358;2023-04-03T06:25:32;3.20;99.90
7576;DHT22;3829;50.798;4.358;2023-04-03T06:27:58;3.20;99.90
7576;DHT22;3829;50.798;4.358;2023-04-03T06:30:25;3.40;99.90
7576;DHT22;3829;50.798;4.358;2023-04-03T06:32:51;3.50;99.90
7576;DHT22;3829;50.798;4.358;2023-04-03T06:35:17;3.50;99.90
7576;DHT22;3829;50.798;4.358;2023-04-03T06:37:42;3.60;99.90
7576;DHT22;3829;50.798;4.358;2023-04-03T06:40:21;3.70;99.90
7576;DHT22;3829;50.798;4.358;2023-04-03T06:42:47;3.80;99.90
7576;DHT22;3829;50.798;4.358;2023-04-03T06:45:13;3.90;99.90
7576;DHT22;3829;50.798;4.358;2023-04-03T06:47:38;4.00;99.90
7576;DHT22;3829;50.798;4.358;2023-04-03T06:50:04;4.10;99.90
7576;DHT22;3829;50.798;4.358;2023-04-03T06:52:31;4.20;99.90
7576;DHT22;3829;50.798;4.358;2023-04-03T06:54:57;4.40;99.90
7576;DHT22;3829;50.798;4.358;2023-04-03T06:57:24;4.40;99.90
7576;DHT22;3829;50.798;4.358;2023-04-03T06:59:50;4.40;99.90
7576;DHT22;3829;50.798;4.358;2023-04-03T07:02:17;4.60;99.90
7576;DHT22;3829;50.798;4.358;2023-04-03T07:04:42;4.60;99.90
7576;DHT22;3829;50.798;4.358;2023-04-03T07:07:08;4.60;99.90
7576;DHT22;3829;50.798;4.358;2023-04-03T07:09:34;4.80;99.90
7576;DHT22;3829;50.798;4.358;2023-04-03T07:12:00;4.80;99.90
7576;DHT22;3829;50.798;4.358;2023-04-03T07:14:28;4.90;99.90
7576;DHT22;3829;50.798;4.358;2023-04-03T07:16:54;4.90;99.90
7576;DHT22;3829;50.798;4.358;2023-04-03T07:19:20;4.90;99.90
7576;DHT22;3829;50.798;4.358;2023-04-03T07:21:47;4.90;99.90
7576;DHT22;3829;50.798;4.358;2023-04-03T07:24:12;5.00;99.90
7576;DHT22;3829;50.798;4.358;2023-04-03T07:26:38;4.90;99.90
7576;DHT22;3829;50.798;4.358;2023-04-03T07:29:04;5.00;99.90
7576;DHT22;3829;50.798;4.358;2023-04-03T07:31:30;5.00;99.90
7576;DHT22;3829;50.798;4.358;2023-04-03T07:33:55;5.20;99.90
7576;DHT22;3829;50.798;4.358;2023-04-03T07:36:22;5.20;99.90
7576;DHT22;3829;50.798;4.358;2023-04-03T07:38:48;5.10;99.90
7576;DHT22;3829;50.798;4.358;2023-04-03T07:41:16;5.20;99.90
7576;DHT22;3829;50.798;4.358;2023-04-03T07:43:44;5.30;99.90
7576;DHT22;3829;50.798;4.358;2023-04-03T07:46:13;5.40;99.90
7576;DHT22;3829;50.798;4.358;2023-04-03T07:48:38;5.50;99.90
7576;DHT22;3829;50.798;4.358;2023-04-03T07:51:05;5.50;99.90
7576;DHT22;3829;50.798;4.358;2023-04-03T07:53:31;5.60;99.90
7576;DHT22;3829;50.798;4.358;2023-04-03T07:55:58;5.70;99.90
7576;DHT22;3829;50.798;4.358;2023-04-03T07:58:24;5.70;99.90
7576;DHT22;3829;50.798;4.358;2023-04-03T08:00:51;5.70;99.90
7576;DHT22;3829;50.798;4.358;2023-04-03T08:03:17;5.80;99.90
7576;DHT22;3829;50.798;4.358;2023-04-03T08:05:45;5.90;99.90
7576;DHT22;3829;50.798;4.358;2023-04-03T08:08:14;6.00;99.90
7576;DHT22;3829;50.798;4.358;2023-04-03T08:10:41;6.00;99.90
7576;DHT22;3829;50.798;4.358;2023-04-03T08:13:08;6.20;99.90
7576;DHT22;3829;50.798;4.358;2023-04-03T08:15:33;6.20;99.90
7576;DHT22;3829;50.798;4.358;2023-04-03T08:18:00;6.10;99.90
7576;DHT22;3829;50.798;4.358;2023-04-03T08:20:26;6.30;99.90
7576;DHT22;3829;50.798;4.358;2023-04-03T08:22:52;6.40;99.90
7576;DHT22;3829;50.798;4.358;2023-04-03T08:25:18;6.40;99.90
7576;DHT22;3829;50.798;4.358;2023-04-03T08:27:44;6.50;99.90
7576;DHT22;3829;50.798;4.358;2023-04-03T08:30:10;6.70;99.90
7576;DHT22;3829;50.798;4.358;2023-04-03T08:32:36;6.70;99.90
7576;DHT22;3829;50.798;4.358;2023-04-03T08:35:04;6.70;99.90
7576;DHT22;3829;50.798;4.358;2023-04-03T08:37:30;6.80;99.90
7576;DHT22;3829;50.798;4.358;2023-04-03T08:39:55;6.90;99.90
7576;DHT22;3829;50.798;4.358;2023-04-03T08:45:13;6.80;99.90
7576;DHT22;3829;50.798;4.358;2023-04-03T08:47:58;6.90;99.90
7576;DHT22;3829;50.798;4.358;2023-04-03T08:50:47;6.80;99.90
7576;DHT22;3829;50.798;4.358;2023-04-03T08:53:25;7.00;99.90
7576;DHT22;3829;50.798;4.358;2023-04-03T08:55:54;7.00;99.90
7576;DHT22;3829;50.798;4.358;2023-04-03T08:58:26;7.10;99.90
7576;DHT22;3829;50.798;4.358;2023-04-03T09:01:01;7.30;99.90
7576;DHT22;3829;50.798;4.358;2023-04-03T09:03:34;7.30;99.90
7576;DHT22;3829;50.798;4.358;2023-04-03T09:06:23;7.40;99.90
7576;DHT22;3829;50.798;4.358;2023-04-03T09:09:14;7.50;99.90
7576;DHT22;3829;50.798;4.358;2023-04-03T09:11:51;7.50;99.90
7576;DHT22;3829;50.798;4.358;2023-04-03T09:16:55;7.50;99.90
7576;DHT22;3829;50.798;4.358;2023-04-03T09:21:58;7.70;99.90
7576;DHT22;3829;50.798;4.358;2023-04-03T09:24:25;7.80;99.90
7576;DHT22;3829;50.798;4.358;2023-04-03T09:26:59;7.70;99.90
7576;DHT22;3829;50.798;4.358;2023-04-03T09:29:27;7.70;99.90
7576;DHT22;3829;50.798;4.358;2023-04-03T09:31:58;7.80;99.90
7576;DHT22;3829;50.798;4.358;2023-04-03T09:34:32;7.80;99.90
7576;DHT22;3829;50.798;4.358;2023-04-03T09:37:00;7.80;99.90
7576;DHT22;3829;50.798;4.358;2023-04-03T09:39:32;7.70;99.90
7576;DHT22;3829;50.798;4.358;2023-04-03T09:42:24;7.80;99.90
7576;DHT22;3829;50.798;4.358;2023-04-03T09:44:56;7.90;99.90
7576;DHT22;3829;50.798;4.358;2023-04-03T09:47:31;8.00;99.90
7576;DHT22;3829;50.798;4.358;2023-04-03T09:52:44;8.20;99.90
7576;DHT22;3829;50.798;4.358;2023-04-03T09:57:44;8.30;99.90
7576;DHT22;3829;50.798;4.358;2023-04-03T10:00:22;8.20;99.90
7576;DHT22;3829;50.798;4.358;2023-04-03T10:02:54;8.10;99.90
7576;DHT22;3829;50.798;4.358;2023-04-03T10:05:39;8.20;99.90
7576;DHT22;3829;50.798;4.358;2023-04-03T10:08:10;8.30;99.90
7576;DHT22;3829;50.798;4.358;2023-04-03T10:10:36;8.30;99.90
7576;DHT22;3829;50.798;4.358;2023-04-03T10:13:10;8.20;99.90
7576;DHT22;3829;50.798;4.358;2023-04-03T10:15:42;8.40;99.90
7576;DHT22;3829;50.798;4.358;2023-04-03T10:18:32;8.40;99.90
7576;DHT22;3829;50.798;4.358;2023-04-03T10:21:06;8.40;99.90
7576;DHT22;3829;50.798;4.358;2023-04-03T10:23:45;8.50;99.90
7576;DHT22;3829;50.798;4.358;2023-04-03T10:26:32;8.60;99.90
7576;DHT22;3829;50.798;4.358;2023-04-03T10:34:50;8.90;99.90
7576;DHT22;3829;50.798;4.358;2023-04-03T10:37:30;8.90;99.90
7576;DHT22;3829;50.798;4.358;2023-04-03T10:43:14;8.90;99.90
7576;DHT22;3829;50.798;4.358;2023-04-03T10:45:59;9.00;99.90
7576;DHT22;3829;50.798;4.358;2023-04-03T10:54:08;9.10;99.90
7576;DHT22;3829;50.798;4.358;2023-04-03T10:56:44;9.20;99.90
7576;DHT22;3829;50.798;4.358;2023-04-03T10:59:17;9.30;99.90
7576;DHT22;3829;50.798;4.358;2023-04-03T11:01:46;9.30;99.90
7576;DHT22;3829;50.798;4.358;2023-04-03T11:04:16;9.40;99.90
7576;DHT22;3829;50.798;4.358;2023-04-03T11:06:50;9.50;99.90
7576;DHT22;3829;50.798;4.358;2023-04-03T11:09:26;9.40;99.90
7576;DHT22;3829;50.798;4.358;2023-04-03T11:11:57;9.40;99.90
7576;DHT22;3829;50.798;4.358;2023-04-03T11:14:26;9.40;99.90
7576;DHT22;3829;50.798;4.358;2023-04-03T11:19:59;9.40;99.90
7576;DHT22;3829;50.798;4.358;2023-04-03T11:22:32;9.50;99.90
7576;DHT22;3829;50.798;4.358;2023-04-03T11:25:14;9.60;99.90
7576;DHT22;3829;50.798;4.358;2023-04-03T11:27:57;9.80;99.90
7576;DHT22;3829;50.798;4.358;2023-04-03T11:30:39;9.60;99.90
7576;DHT22;3829;50.798;4.358;2023-04-03T11:35:58;9.50;99.90
7576;DHT22;3829;50.798;4.358;2023-04-03T11:38:33;9.50;99.90
7576;DHT22;3829;50.798;4.358;2023-04-03T11:41:03;9.70;99.90
7576;DHT22;3829;50.798;4.358;2023-04-03T11:43:31;9.90;99.90
7576;DHT22;3829;50.798;4.358;2023-04-03T11:46:01;9.90;99.90
7576;DHT22;3829;50.798;4.358;2023-04-03T11:51:00;9.90;99.90
7576;DHT22;3829;50.798;4.358;2023-04-03T12:00:56;9.90;99.90
7576;DHT22;3829;50.798;4.358;2023-04-03T12:08:50;10.10;99.90
7576;DHT22;3829;50.798;4.358;2023-04-03T12:11:31;10.20;99.90
7576;DHT22;3829;50.798;4.358;2023-04-03T12:19:32;10.20;99.90
7576;DHT22;3829;50.798;4.358;2023-04-03T12:24:30;10.10;99.90
7576;DHT22;3829;50.798;4.358;2023-04-03T12:27:07;10.00;99.90
7576;DHT22;3829;50.798;4.358;2023-04-03T12:29:40;10.00;99.90
7576;DHT22;3829;50.798;4.358;2023-04-03T12:32:19;9.90;99.90
7576;DHT22;3829;50.798;4.358;2023-04-03T12:54:00;10.20;99.90
7576;DHT22;3829;50.798;4.358;2023-04-03T12:56:30;10.30;99.90
7576;DHT22;3829;50.798;4.358;2023-04-03T13:01:42;10.40;99.90
7576;DHT22;3829;50.798;4.358;2023-04-03T13:04:10;10.30;99.90
7576;DHT22;3829;50.798;4.358;2023-04-03T13:06:42;10.20;99.90
7576;DHT22;3829;50.798;4.358;2023-04-03T13:09:29;10.20;99.90
7576;DHT22;3829;50.798;4.358;2023-04-03T13:12:15;10.30;99.90
7576;DHT22;3829;50.798;4.358;2023-04-03T13:14:54;10.10;99.90
7576;DHT22;3829;50.798;4.358;2023-04-03T13:17:21;10.20;99.90
7576;DHT22;3829;50.798;4.358;2023-04-03T13:19:47;10.20;99.90
7576;DHT22;3829;50.798;4.358;2023-04-03T13:22:36;10.20;99.90
7576;DHT22;3829;50.798;4.358;2023-04-03T13:25:07;10.40;99.90
7576;DHT22;3829;50.798;4.358;2023-04-03T13:27:34;10.40;99.90
7576;DHT22;3829;50.798;4.358;2023-04-03T13:30:01;10.40;99.90
7576;DHT22;3829;50.798;4.358;2023-04-03T13:32:29;10.30;99.90
7576;DHT22;3829;50.798;4.358;2023-04-03T13:34:56;10.30;99.90
7576;DHT22;3829;50.798;4.358;2023-04-03T13:37:25;10.30;99.90
7576;DHT22;3829;50.798;4.358;2023-04-03T13:42:33;10.50;99.90
7576;DHT22;3829;50.798;4.358;2023-04-03T13:45:24;10.60;99.90
7576;DHT22;3829;50.798;4.358;2023-04-03T13:47:53;10.60;99.90
7576;DHT22;3829;50.798;4.358;2023-04-03T13:50:25;10.70;99.90
7576;DHT22;3829;50.798;4.358;2023-04-03T13:55:29;11.10;99.90
7576;DHT22;3829;50.798;4.358;2023-04-03T13:58:02;11.50;99.90
7576;DHT22;3829;50.798;4.358;2023-04-03T14:02:58;12.40;99.90
7576;DHT22;3829;50.798;4.358;2023-04-03T14:05:24;12.30;99.40
7576;DHT22;3829;50.798;4.358;2023-04-03T14:07:53;12.50;99.90
7576;DHT22;3829;50.798;4.358;2023-04-03T14:10:19;12.80;98.90
7576;DHT22;3829;50.798;4.358;2023-04-03T14:12:45;13.00;98.60
7576;DHT22;3829;50.798;4.358;2023-04-03T14:15:26;13.00;98.60
7576;DHT22;3829;50.798;4.358;2023-04-03T14:17:53;13.40;98.30
7576;DHT22;3829;50.798;4.358;2023-04-03T14:20:24;12.70;98.40
7576;DHT22;3829;50.798;4.358;2023-04-03T14:22:50;12.50;98.70
7576;DHT22;3829;50.798;4.358;2023-04-03T14:25:17;12.10;99.20
7576;DHT22;3829;50.798;4.358;2023-04-03T14:27:45;12.60;99.90
7576;DHT22;3829;50.798;4.358;2023-04-03T14:30:25;12.70;99.30
7576;DHT22;3829;50.798;4.358;2023-04-03T14:32:51;13.10;98.60
7576;DHT22;3829;50.798;4.358;2023-04-03T14:35:18;12.60;97.90
7576;DHT22;3829;50.798;4.358;2023-04-03T14:37:45;12.60;97.30
7576;DHT22;3829;50.798;4.358;2023-04-03T14:40:16;13.20;98.30
7576;DHT22;3829;50.798;4.358;2023-04-03T14:42:42;13.90;97.30
7576;DHT22;3829;50.798;4.358;2023-04-03T14:45:10;14.20;97.00
7576;DHT22;3829;50.798;4.358;2023-04-03T14:47:46;14.10;96.30
7576;DHT22;3829;50.798;4.358;2023-04-03T14:50:22;13.90;95.60
7576;DHT22;3829;50.798;4.358;2023-04-03T14:52:50;13.80;94.60
7576;DHT22;3829;50.798;4.358;2023-04-03T14:55:19;14.10;94.60
7576;DHT22;3829;50.798;4.358;2023-04-03T14:57:45;13.50;94.00
7576;DHT22;3829;50.798;4.358;2023-04-03T15:00:16;13.50;94.40
7576;DHT22;3829;50.798;4.358;2023-04-03T15:02:43;13.40;94.60
7576;DHT22;3829;50.798;4.358;2023-04-03T15:05:11;13.60;94.00
7576;DHT22;3829;50.798;4.358;2023-04-03T15:07:43;13.50;93.90
7576;DHT22;3829;50.798;4.358;2023-04-03T15:10:26;13.40;93.30
7576;DHT22;3829;50.798;4.358;2023-04-03T15:12:52;13.80;93.40
7576;DHT22;3829;50.798;4.358;2023-04-03T15:15:20;14.40;93.40
7576;DHT22;3829;50.798;4.358;2023-04-03T15:17:48;14.70;92.90
7576;DHT22;3829;50.798;4.358;2023-04-03T15:20:18;14.80;93.20
7576;DHT22;3829;50.798;4.358;2023-04-03T15:22:44;15.20;93.20
7576;DHT22;3829;50.798;4.358;2023-04-03T15:25:10;15.60;92.60
7576;DHT22;3829;50.798;4.358;2023-04-03T15:27:37;15.80;92.10
7576;DHT22;3829;50.798;4.358;2023-04-03T15:30:06;15.40;91.80
7576;DHT22;3829;50.798;4.358;2023-04-03T15:32:32;15.70;91.80
7576;DHT22;3829;50.798;4.358;2023-04-03T15:34:59;15.50;91.20
7576;DHT22;3829;50.798;4.358;2023-04-03T15:37:25;15.20;91.70
7576;DHT22;3829;50.798;4.358;2023-04-03T15:39:50;15.30;91.70
7576;DHT22;3829;50.798;4.358;2023-04-03T15:42:16;15.10;91.90
7576;DHT22;3829;50.798;4.358;2023-04-03T15:44:41;14.50;92.00
7576;DHT22;3829;50.798;4.358;2023-04-03T15:47:07;14.00;91.80
7576;DHT22;3829;50.798;4.358;2023-04-03T15:49:33;13.80;92.20
7576;DHT22;3829;50.798;4.358;2023-04-03T15:51:59;13.90;92.90
7576;DHT22;3829;50.798;4.358;2023-04-03T15:54:25;13.90;93.10
7576;DHT22;3829;50.798;4.358;2023-04-03T15:56:52;13.80;92.60
7576;DHT22;3829;50.798;4.358;2023-04-03T15:59:18;14.00;92.80
7576;DHT22;3829;50.798;4.358;2023-04-03T16:01:44;14.30;92.80
7576;DHT22;3829;50.798;4.358;2023-04-03T16:04:10;14.20;92.60
7576;DHT22;3829;50.798;4.358;2023-04-03T16:06:37;14.10;92.90
7576;DHT22;3829;50.798;4.358;2023-04-03T16:09:03;14.60;92.80
7576;DHT22;3829;50.798;4.358;2023-04-03T16:11:29;14.30;92.70
7576;DHT22;3829;50.798;4.358;2023-04-03T16:13:55;14.70;93.10
7576;DHT22;3829;50.798;4.358;2023-04-03T16:16:21;14.50;92.90
7576;DHT22;3829;50.798;4.358;2023-04-03T16:18:47;14.00;93.30
7576;DHT22;3829;50.798;4.358;2023-04-03T16:21:14;14.00;93.30
7576;DHT22;3829;50.798;4.358;2023-04-03T16:23:41;13.80;93.40
7576;DHT22;3829;50.798;4.358;2023-04-03T16:26:07;14.20;93.30
7576;DHT22;3829;50.798;4.358;2023-04-03T16:28:32;14.00;93.30
7576;DHT22;3829;50.798;4.358;2023-04-03T16:31:00;14.20;92.90
7576;DHT22;3829;50.798;4.358;2023-04-03T16:33:27;14.30;93.60
7576;DHT22;3829;50.798;4.358;2023-04-03T16:35:53;13.70;93.80
7576;DHT22;3829;50.798;4.358;2023-04-03T16:38:19;13.30;94.20
7576;DHT22;3829;50.798;4.358;2023-04-03T16:40:45;13.40;94.20
7576;DHT22;3829;50.798;4.358;2023-04-03T16:43:11;13.50;94.60
7576;DHT22;3829;50.798;4.358;2023-04-03T16:45:37;13.40;94.30
7576;DHT22;3829;50.798;4.358;2023-04-03T16:48:03;13.40;94.50
7576;DHT22;3829;50.798;4.358;2023-04-03T16:50:29;13.40;94.70
7576;DHT22;3829;50.798;4.358;2023-04-03T16:52:54;12.60;95.10
7576;DHT22;3829;50.798;4.358;2023-04-03T16:55:20;11.90;96.00
7576;DHT22;3829;50.798;4.358;2023-04-03T16:57:46;11.30;96.70
7576;DHT22;3829;50.798;4.358;2023-04-03T17:00:12;10.80;97.40
7576;DHT22;3829;50.798;4.358;2023-04-03T17:02:39;10.30;98.00
7576;DHT22;3829;50.798;4.358;2023-04-03T17:05:05;10.00;98.50
7576;DHT22;3829;50.798;4.358;2023-04-03T17:07:31;9.90;98.90
7576;DHT22;3829;50.798;4.358;2023-04-03T17:09:57;9.80;99.30
7576;DHT22;3829;50.798;4.358;2023-04-03T17:12:24;9.60;99.60
7576;DHT22;3829;50.798;4.358;2023-04-03T17:14:49;9.50;99.90
7576;DHT22;3829;50.798;4.358;2023-04-03T17:17:18;9.50;99.90
7576;DHT22;3829;50.798;4.358;2023-04-03T17:19:45;9.40;99.90
7576;DHT22;3829;50.798;4.358;2023-04-03T17:22:10;9.30;99.90
7576;DHT22;3829;50.798;4.358;2023-04-03T17:24:36;9.20;99.90
7576;DHT22;3829;50.798;4.358;2023-04-03T17:27:03;9.20;99.90
7576;DHT22;3829;50.798;4.358;2023-04-03T17:29:29;9.20;99.90
7576;DHT22;3829;50.798;4.358;2023-04-03T17:31:54;9.50;99.90
7576;DHT22;3829;50.798;4.358;2023-04-03T17:34:20;9.60;99.90
7576;DHT22;3829;50.798;4.358;2023-04-03T17:36:46;9.60;99.90
7576;DHT22;3829;50.798;4.358;2023-04-03T17:39:11;9.40;99.90
7576;DHT22;3829;50.798;4.358;2023-04-03T17:41:37;9.20;99.90
7576;DHT22;3829;50.798;4.358;2023-04-03T17:44:03;9.10;99.90
7576;DHT22;3829;50.798;4.358;2023-04-03T17:46:29;9.00;99.90
7576;DHT22;3829;50.798;4.358;2023-04-03T17:48:55;8.90;99.90
7576;DHT22;3829;50.798;4.358;2023-04-03T17:51:23;8.90;99.90
7576;DHT22;3829;50.798;4.358;2023-04-03T17:53:49;8.80;99.90